sensor_id;sensor_type;location;lat;lon;timestamp;P1;durP1;ratioP1;P2;durP2;ratioP2
22673;SDS011;11504;43.334;21.918;2023-02-04T00:02:11;42.0;;;40.0;;
22673;SDS011;11504;43.334;21.918;2023-02-04T00:06:48;42.0;;;40.0;;
22673;SDS011;11504;43.334;21.918;2023-02-04T00:11:25;32.0;;;31.0;;
22673;SDS011;11504;43.334;21.918;2023-02-04T00:16:01;32.0;;;31.0;;
22673;SDS011;11504;43.334;21.918;2023-02-04T00:20:38;27.0;;;26.0;;
22673;SDS011;11504;43.334;21.918;2023-02-04T00:25:15;27.0;;;26.0;;
22673;SDS011;11504;43.334;21.918;2023-02-04T00:29:52;22.0;;;21.0;;
22673;SDS011;11504;43.334;21.918;2023-02-04T00:34:29;22.0;;;21.0;;
22673;SDS011;11504;43.334;21.918;2023-02-04T00:39:05;22.0;;;20.0;;
22673;SDS011;11504;43.334;21.918;2023-02-04T00:43:41;22.0;;;20.0;;
22673;SDS011;11504;43.334;21.918;2023-02-04T00:48:18;22.0;;;20.0;;
22673;SDS011;11504;43.334;21.918;2023-02-04T00:52:54;22.0;;;20.0;;
22673;SDS011;11504;43.334;21.918;2023-02-04T00:57:30;22.0;;;20.0;;
22673;SDS011;11504;43.334;21.918;2023-02-04T01:02:07;22.0;;;21.0;;
22673;SDS011;11504;43.334;21.918;2023-02-04T01:06:44;22.0;;;21.0;;
22673;SDS011;11504;43.334;21.918;2023-02-04T01:11:20;23.0;;;22.0;;
22673;SDS011;11504;43.334;21.918;2023-02-04T01:15:57;23.0;;;22.0;;
22673;SDS011;11504;43.334;21.918;2023-02-04T01:20:34;18.0;;;18.0;;
22673;SDS011;11504;43.334;21.918;2023-02-04T01:25:11;18.0;;;18.0;;
22673;SDS011;11504;43.334;21.918;2023-02-04T01:29:48;13.0;;;13.0;;
22673;SDS011;11504;43.334;21.918;2023-02-04T01:34:24;13.0;;;13.0;;
22673;SDS011;11504;43.334;21.918;2023-02-04T01:39:01;13.0;;;12.0;;
22673;SDS011;11504;43.334;21.918;2023-02-04T01:43:38;13.0;;;12.0;;
22673;SDS011;11504;43.334;21.918;2023-02-04T01:48:18;13.0;;;12.0;;
22673;SDS011;11504;43.334;21.918;2023-02-04T01:52:59;13.0;;;12.0;;
22673;SDS011;11504;43.334;21.918;2023-02-04T01:57:36;13.0;;;12.0;;
22673;SDS011;11504;43.334;21.918;2023-02-04T02:02:47;12.0;;;10.0;;
22673;SDS011;11504;43.334;21.918;2023-02-04T02:07:28;12.0;;;10.0;;
22673;SDS011;11504;43.334;21.918;2023-02-04T02:12:04;10.0;;;9.0;;
22673;SDS011;11504;43.334;21.918;2023-02-04T02:16:41;10.0;;;9.0;;
22673;SDS011;11504;43.334;21.918;2023-02-04T02:21:32;10.0;;;9.0;;
22673;SDS011;11504;43.334;21.918;2023-02-04T02:26:34;10.0;;;9.0;;
22673;SDS011;11504;43.334;21.918;2023-02-04T02:31:11;10.0;;;9.0;;
22673;SDS011;11504;43.334;21.918;2023-02-04T02:35:49;10.0;;;9.0;;
22673;SDS011;11504;43.334;21.918;2023-02-04T02:40:26;14.0;;;12.0;;
22673;SDS011;11504;43.334;21.918;2023-02-04T02:45:22;14.0;;;12.0;;
22673;SDS011;11504;43.334;21.918;2023-02-04T02:50:12;17.0;;;15.0;;
22673;SDS011;11504;43.334;21.918;2023-02-04T02:55:04;17.0;;;15.0;;
22673;SDS011;11504;43.334;21.918;2023-02-04T02:59:55;18.0;;;16.0;;
22673;SDS011;11504;43.334;21.918;2023-02-04T03:04:37;18.0;;;16.0;;
22673;SDS011;11504;43.334;21.918;2023-02-04T03:09:26;20.0;;;18.0;;
22673;SDS011;11504;43.334;21.918;2023-02-04T03:14:04;20.0;;;18.0;;
22673;SDS011;11504;43.334;21.918;2023-02-04T03:18:41;16.0;;;14.0;;
22673;SDS011;11504;43.334;21.918;2023-02-04T03:23:19;16.0;;;14.0;;
22673;SDS011;11504;43.334;21.918;2023-02-04T03:27:57;13.0;;;11.0;;
22673;SDS011;11504;43.334;21.918;2023-02-04T03:32:35;13.0;;;11.0;;
22673;SDS011;11504;43.334;21.918;2023-02-04T03:37:11;13.0;;;11.0;;
22673;SDS011;11504;43.334;21.918;2023-02-04T03:41:48;12.0;;;11.0;;
22673;SDS011;11504;43.334;21.918;2023-02-04T03:46:24;12.0;;;11.0;;
22673;SDS011;11504;43.334;21.918;2023-02-04T03:51:01;12.0;;;11.0;;
22673;SDS011;11504;43.334;21.918;2023-02-04T03:55:40;12.0;;;11.0;;
22673;SDS011;11504;43.334;21.918;2023-02-04T04:00:17;12.0;;;11.0;;
22673;SDS011;11504;43.334;21.918;2023-02-04T04:04:55;12.0;;;11.0;;
22673;SDS011;11504;43.334;21.918;2023-02-04T04:09:31;11.0;;;11.0;;
22673;SDS011;11504;43.334;21.918;2023-02-04T04:14:08;11.0;;;11.0;;
22673;SDS011;11504;43.334;21.918;2023-02-04T04:18:45;11.0;;;10.0;;
22673;SDS011;11504;43.334;21.918;2023-02-04T04:23:21;11.0;;;10.0;;
22673;SDS011;11504;43.334;21.918;2023-02-04T04:27:58;11.0;;;10.0;;
22673;SDS011;11504;43.334;21.918;2023-02-04T04:32:35;11.0;;;10.0;;
22673;SDS011;11504;43.334;21.918;2023-02-04T04:37:12;11.0;;;10.0;;
22673;SDS011;11504;43.334;21.918;2023-02-04T04:41:48;12.0;;;11.0;;
22673;SDS011;11504;43.334;21.918;2023-02-04T04:46:24;12.0;;;11.0;;
22673;SDS011;11504;43.334;21.918;2023-02-04T04:51:01;12.0;;;12.0;;
22673;SDS011;11504;43.334;21.918;2023-02-04T04:55:37;12.0;;;12.0;;
22673;SDS011;11504;43.334;21.918;2023-02-04T05:00:18;14.0;;;13.0;;
22673;SDS011;11504;43.334;21.918;2023-02-04T05:04:58;14.0;;;13.0;;
22673;SDS011;11504;43.334;21.918;2023-02-04T05:09:34;15.0;;;14.0;;
22673;SDS011;11504;43.334;21.918;2023-02-04T05:14:11;15.0;;;14.0;;
22673;SDS011;11504;43.334;21.918;2023-02-04T05:18:48;16.0;;;16.0;;
22673;SDS011;11504;43.334;21.918;2023-02-04T05:23:24;16.0;;;16.0;;
22673;SDS011;11504;43.334;21.918;2023-02-04T05:28:01;18.0;;;17.0;;
22673;SDS011;11504;43.334;21.918;2023-02-04T05:32:38;18.0;;;17.0;;
22673;SDS011;11504;43.334;21.918;2023-02-04T05:37:15;18.0;;;17.0;;
22673;SDS011;11504;43.334;21.918;2023-02-04T05:41:52;19.0;;;18.0;;
22673;SDS011;11504;43.334;21.918;2023-02-04T05:46:28;19.0;;;18.0;;
22673;SDS011;11504;43.334;21.918;2023-02-04T05:51:06;20.0;;;19.0;;
22673;SDS011;11504;43.334;21.918;2023-02-04T05:55:42;20.0;;;19.0;;
22673;SDS011;11504;43.334;21.918;2023-02-04T06:00:19;24.0;;;23.0;;
22673;SDS011;11504;43.334;21.918;2023-02-04T06:04:57;24.0;;;23.0;;
22673;SDS011;11504;43.334;21.918;2023-02-04T06:09:33;28.0;;;27.0;;
22673;SDS011;11504;43.334;21.918;2023-02-04T06:14:09;28.0;;;27.0;;
22673;SDS011;11504;43.334;21.918;2023-02-04T06:18:45;28.0;;;26.0;;
22673;SDS011;11504;43.334;21.918;2023-02-04T06:23:22;28.0;;;26.0;;
22673;SDS011;11504;43.334;21.918;2023-02-04T06:27:58;27.0;;;26.0;;
22673;SDS011;11504;43.334;21.918;2023-02-04T06:32:35;27.0;;;26.0;;
22673;SDS011;11504;43.334;21.918;2023-02-04T06:37:12;27.0;;;26.0;;
22673;SDS011;11504;43.334;21.918;2023-02-04T06:41:50;26.0;;;24.0;;
22673;SDS011;11504;43.334;21.918;2023-02-04T06:46:27;26.0;;;24.0;;
22673;SDS011;11504;43.334;21.918;2023-02-04T06:51:04;24.0;;;23.0;;
22673;SDS011;11504;43.334;21.918;2023-02-04T06:55:41;24.0;;;23.0;;
22673;SDS011;11504;43.334;21.918;2023-02-04T07:00:19;36.0;;;34.0;;
22673;SDS011;11504;43.334;21.918;2023-02-04T07:04:56;36.0;;;34.0;;
22673;SDS011;11504;43.334;21.918;2023-02-04T07:09:33;48.0;;;46.0;;
22673;SDS011;11504;43.334;21.918;2023-02-04T07:14:09;48.0;;;46.0;;
22673;SDS011;11504;43.334;21.918;2023-02-04T07:18:46;46.0;;;44.0;;
22673;SDS011;11504;43.334;21.918;2023-02-04T07:23:22;46.0;;;44.0;;
22673;SDS011;11504;43.334;21.918;2023-02-04T07:27:58;46.0;;;44.0;;
22673;SDS011;11504;43.334;21.918;2023-02-04T07:32:34;43.0;;;41.0;;
22673;SDS011;11504;43.334;21.918;2023-02-04T07:37:11;43.0;;;41.0;;
22673;SDS011;11504;43.334;21.918;2023-02-04T07:41:47;32.0;;;31.0;;
22673;SDS011;11504;43.334;21.918;2023-02-04T07:46:24;32.0;;;31.0;;
22673;SDS011;11504;43.334;21.918;2023-02-04T07:51:01;22.0;;;21.0;;
22673;SDS011;11504;43.334;21.918;2023-02-04T07:55:38;22.0;;;21.0;;
22673;SDS011;11504;43.334;21.918;2023-02-04T08:00:15;24.0;;;23.0;;
22673;SDS011;11504;43.334;21.918;2023-02-04T08:04:53;24.0;;;23.0;;
22673;SDS011;11504;43.334;21.918;2023-02-04T08:09:30;27.0;;;25.0;;
22673;SDS011;11504;43.334;21.918;2023-02-04T08:14:06;27.0;;;25.0;;
22673;SDS011;11504;43.334;21.918;2023-02-04T08:18:43;28.0;;;26.0;;
22673;SDS011;11504;43.334;21.918;2023-02-04T08:23:20;28.0;;;26.0;;
22673;SDS011;11504;43.334;21.918;2023-02-04T08:27:56;28.0;;;26.0;;
22673;SDS011;11504;43.334;21.918;2023-02-04T08:32:33;28.0;;;27.0;;
22673;SDS011;11504;43.334;21.918;2023-02-04T08:37:09;28.0;;;27.0;;
22673;SDS011;11504;43.334;21.918;2023-02-04T08:41:46;28.0;;;26.0;;
22673;SDS011;11504;43.334;21.918;2023-02-04T08:46:23;28.0;;;26.0;;
22673;SDS011;11504;43.334;21.918;2023-02-04T08:50:59;28.0;;;26.0;;
22673;SDS011;11504;43.334;21.918;2023-02-04T08:55:35;28.0;;;26.0;;
22673;SDS011;11504;43.334;21.918;2023-02-04T09:00:13;30.0;;;27.0;;
22673;SDS011;11504;43.334;21.918;2023-02-04T09:04:52;30.0;;;27.0;;
22673;SDS011;11504;43.334;21.918;2023-02-04T09:09:29;33.0;;;28.0;;
22673;SDS011;11504;43.334;21.918;2023-02-04T09:14:06;33.0;;;28.0;;
22673;SDS011;11504;43.334;21.918;2023-02-04T09:18:44;28.0;;;24.0;;
22673;SDS011;11504;43.334;21.918;2023-02-04T09:23:20;28.0;;;24.0;;
22673;SDS011;11504;43.334;21.918;2023-02-04T09:27:57;28.0;;;24.0;;
22673;SDS011;11504;43.334;21.918;2023-02-04T09:32:34;22.0;;;21.0;;
22673;SDS011;11504;43.334;21.918;2023-02-04T09:37:10;22.0;;;21.0;;
22673;SDS011;11504;43.334;21.918;2023-02-04T09:41:47;24.0;;;23.0;;
22673;SDS011;11504;43.334;21.918;2023-02-04T09:46:27;24.0;;;23.0;;
22673;SDS011;11504;43.334;21.918;2023-02-04T09:51:07;26.0;;;25.0;;
22673;SDS011;11504;43.334;21.918;2023-02-04T09:55:59;26.0;;;25.0;;
22673;SDS011;11504;43.334;21.918;2023-02-04T10:00:36;28.0;;;26.0;;
22673;SDS011;11504;43.334;21.918;2023-02-04T10:05:15;28.0;;;26.0;;
22673;SDS011;11504;43.334;21.918;2023-02-04T10:10:04;29.0;;;27.0;;
22673;SDS011;11504;43.334;21.918;2023-02-04T10:14:41;29.0;;;27.0;;
22673;SDS011;11504;43.334;21.918;2023-02-04T10:19:19;25.0;;;23.0;;
22673;SDS011;11504;43.334;21.918;2023-02-04T10:24:00;25.0;;;23.0;;
22673;SDS011;11504;43.334;21.918;2023-02-04T10:28:58;21.0;;;19.0;;
22673;SDS011;11504;43.334;21.918;2023-02-04T10:33:41;21.0;;;19.0;;
22673;SDS011;11504;43.334;21.918;2023-02-04T10:38:18;19.0;;;18.0;;
22673;SDS011;11504;43.334;21.918;2023-02-04T10:42:57;19.0;;;18.0;;
22673;SDS011;11504;43.334;21.918;2023-02-04T10:47:50;19.0;;;18.0;;
22673;SDS011;11504;43.334;21.918;2023-02-04T10:52:34;17.0;;;16.0;;
22673;SDS011;11504;43.334;21.918;2023-02-04T10:57:26;17.0;;;16.0;;
22673;SDS011;11504;43.334;21.918;2023-02-04T11:02:36;16.0;;;16.0;;
22673;SDS011;11504;43.334;21.918;2023-02-04T11:07:29;16.0;;;16.0;;
22673;SDS011;11504;43.334;21.918;2023-02-04T11:12:19;16.0;;;15.0;;
22673;SDS011;11504;43.334;21.918;2023-02-04T11:17:19;16.0;;;15.0;;
22673;SDS011;11504;43.334;21.918;2023-02-04T11:22:07;18.0;;;18.0;;
22673;SDS011;11504;43.334;21.918;2023-02-04T11:27:21;18.0;;;18.0;;
22673;SDS011;11504;43.334;21.918;2023-02-04T11:32:30;21.0;;;20.0;;
22673;SDS011;11504;43.334;21.918;2023-02-04T11:37:28;21.0;;;20.0;;
22673;SDS011;11504;43.334;21.918;2023-02-04T11:42:20;23.0;;;22.0;;
22673;SDS011;11504;43.334;21.918;2023-02-04T11:47:14;23.0;;;22.0;;
22673;SDS011;11504;43.334;21.918;2023-02-04T11:52:03;25.0;;;24.0;;
22673;SDS011;11504;43.334;21.918;2023-02-04T11:56:52;25.0;;;24.0;;
22673;SDS011;11504;43.334;21.918;2023-02-04T12:01:34;22.0;;;22.0;;
22673;SDS011;11504;43.334;21.918;2023-02-04T12:06:20;22.0;;;22.0;;
22673;SDS011;11504;43.334;21.918;2023-02-04T12:11:09;20.0;;;19.0;;
22673;SDS011;11504;43.334;21.918;2023-02-04T12:16:05;20.0;;;19.0;;
22673;SDS011;11504;43.334;21.918;2023-02-04T12:20:42;20.0;;;18.0;;
22673;SDS011;11504;43.334;21.918;2023-02-04T12:25:19;20.0;;;18.0;;
22673;SDS011;11504;43.334;21.918;2023-02-04T12:29:55;19.0;;;18.0;;
22673;SDS011;11504;43.334;21.918;2023-02-04T12:34:32;19.0;;;18.0;;
22673;SDS011;11504;43.334;21.918;2023-02-04T12:39:08;18.0;;;16.0;;
22673;SDS011;11504;43.334;21.918;2023-02-04T12:43:45;18.0;;;16.0;;
22673;SDS011;11504;43.334;21.918;2023-02-04T12:48:21;16.0;;;15.0;;
22673;SDS011;11504;43.334;21.918;2023-02-04T12:52:58;16.0;;;15.0;;
22673;SDS011;11504;43.334;21.918;2023-02-04T12:57:35;16.0;;;15.0;;
22673;SDS011;11504;43.334;21.918;2023-02-04T13:02:11;20.0;;;19.0;;
22673;SDS011;11504;43.334;21.918;2023-02-04T13:06:48;20.0;;;19.0;;
22673;SDS011;11504;43.334;21.918;2023-02-04T13:11:25;24.0;;;23.0;;
22673;SDS011;11504;43.334;21.918;2023-02-04T13:16:01;24.0;;;23.0;;
22673;SDS011;11504;43.334;21.918;2023-02-04T13:20:39;18.0;;;18.0;;
22673;SDS011;11504;43.334;21.918;2023-02-04T13:25:16;18.0;;;18.0;;
22673;SDS011;11504;43.334;21.918;2023-02-04T13:29:53;13.0;;;12.0;;
22673;SDS011;11504;43.334;21.918;2023-02-04T13:34:30;13.0;;;12.0;;
22673;SDS011;11504;43.334;21.918;2023-02-04T13:39:06;14.0;;;14.0;;
22673;SDS011;11504;43.334;21.918;2023-02-04T13:43:43;14.0;;;14.0;;
22673;SDS011;11504;43.334;21.918;2023-02-04T13:48:19;14.0;;;14.0;;
22673;SDS011;11504;43.334;21.918;2023-02-04T13:52:55;15.0;;;15.0;;
22673;SDS011;11504;43.334;21.918;2023-02-04T13:57:32;15.0;;;15.0;;
22673;SDS011;11504;43.334;21.918;2023-02-04T14:02:08;16.0;;;15.0;;
22673;SDS011;11504;43.334;21.918;2023-02-04T14:06:44;16.0;;;15.0;;
22673;SDS011;11504;43.334;21.918;2023-02-04T14:11:20;16.0;;;15.0;;
22673;SDS011;11504;43.334;21.918;2023-02-04T14:15:57;16.0;;;15.0;;
22673;SDS011;11504;43.334;21.918;2023-02-04T14:20:34;16.0;;;14.0;;
22673;SDS011;11504;43.334;21.918;2023-02-04T14:25:12;16.0;;;14.0;;
22673;SDS011;11504;43.334;21.918;2023-02-04T14:29:49;15.0;;;14.0;;
22673;SDS011;11504;43.334;21.918;2023-02-04T14:34:26;15.0;;;14.0;;
22673;SDS011;11504;43.334;21.918;2023-02-04T14:39:03;18.0;;;17.0;;
22673;SDS011;11504;43.334;21.918;2023-02-04T14:43:40;18.0;;;17.0;;
22673;SDS011;11504;43.334;21.918;2023-02-04T14:48:17;18.0;;;17.0;;
22673;SDS011;11504;43.334;21.918;2023-02-04T14:52:55;21.0;;;20.0;;
22673;SDS011;11504;43.334;21.918;2023-02-04T14:57:32;21.0;;;20.0;;
22673;SDS011;11504;43.334;21.918;2023-02-04T15:02:10;22.0;;;20.0;;
22673;SDS011;11504;43.334;21.918;2023-02-04T15:06:47;22.0;;;20.0;;
22673;SDS011;11504;43.334;21.918;2023-02-04T15:11:24;22.0;;;19.0;;
22673;SDS011;11504;43.334;21.918;2023-02-04T15:16:00;22.0;;;19.0;;
22673;SDS011;11504;43.334;21.918;2023-02-04T15:20:36;23.0;;;20.0;;
22673;SDS011;11504;43.334;21.918;2023-02-04T15:25:13;23.0;;;20.0;;
22673;SDS011;11504;43.334;21.918;2023-02-04T15:29:49;24.0;;;20.0;;
22673;SDS011;11504;43.334;21.918;2023-02-04T15:34:27;24.0;;;20.0;;
22673;SDS011;11504;43.334;21.918;2023-02-04T15:39:03;22.0;;;20.0;;
22673;SDS011;11504;43.334;21.918;2023-02-04T15:43:40;22.0;;;20.0;;
22673;SDS011;11504;43.334;21.918;2023-02-04T15:48:16;22.0;;;20.0;;
22673;SDS011;11504;43.334;21.918;2023-02-04T15:52:53;21.0;;;20.0;;
22673;SDS011;11504;43.334;21.918;2023-02-04T15:57:30;21.0;;;20.0;;
22673;SDS011;11504;43.334;21.918;2023-02-04T16:02:07;24.0;;;22.0;;
22673;SDS011;11504;43.334;21.918;2023-02-04T16:06:45;24.0;;;22.0;;
22673;SDS011;11504;43.334;21.918;2023-02-04T16:11:21;26.0;;;23.0;;
22673;SDS011;11504;43.334;21.918;2023-02-04T16:15:58;26.0;;;23.0;;
22673;SDS011;11504;43.334;21.918;2023-02-04T16:20:35;26.0;;;24.0;;
22673;SDS011;11504;43.334;21.918;2023-02-04T16:25:11;26.0;;;24.0;;
22673;SDS011;11504;43.334;21.918;2023-02-04T16:29:49;25.0;;;24.0;;
22673;SDS011;11504;43.334;21.918;2023-02-04T16:34:25;25.0;;;24.0;;
22673;SDS011;11504;43.334;21.918;2023-02-04T16:39:02;25.0;;;24.0;;
22673;SDS011;11504;43.334;21.918;2023-02-04T16:43:38;25.0;;;24.0;;
22673;SDS011;11504;43.334;21.918;2023-02-04T16:48:15;25.0;;;24.0;;
22673;SDS011;11504;43.334;21.918;2023-02-04T16:52:52;25.0;;;23.0;;
22673;SDS011;11504;43.334;21.918;2023-02-04T16:57:29;25.0;;;23.0;;
22673;SDS011;11504;43.334;21.918;2023-02-04T17:02:05;20.0;;;18.0;;
22673;SDS011;11504;43.334;21.918;2023-02-04T17:06:43;20.0;;;18.0;;
22673;SDS011;11504;43.334;21.918;2023-02-04T17:11:21;14.0;;;13.0;;
22673;SDS011;11504;43.334;21.918;2023-02-04T17:16:01;14.0;;;13.0;;
22673;SDS011;11504;43.334;21.918;2023-02-04T17:20:39;14.0;;;13.0;;
22673;SDS011;11504;43.334;21.918;2023-02-04T17:25:16;14.0;;;13.0;;
22673;SDS011;11504;43.334;21.918;2023-02-04T17:29:53;14.0;;;13.0;;
22673;SDS011;11504;43.334;21.918;2023-02-04T17:34:30;14.0;;;13.0;;
22673;SDS011;11504;43.334;21.918;2023-02-04T17:39:06;15.0;;;14.0;;
22673;SDS011;11504;43.334;21.918;2023-02-04T17:43:43;15.0;;;14.0;;
22673;SDS011;11504;43.334;21.918;2023-02-04T17:48:19;15.0;;;14.0;;
22673;SDS011;11504;43.334;21.918;2023-02-04T17:52:56;16.0;;;15.0;;
22673;SDS011;11504;43.334;21.918;2023-02-04T17:57:32;16.0;;;15.0;;
22673;SDS011;11504;43.334;21.918;2023-02-04T18:02:23;16.0;;;15.0;;
22673;SDS011;11504;43.334;21.918;2023-02-04T18:07:08;16.0;;;15.0;;
22673;SDS011;11504;43.334;21.918;2023-02-04T18:11:44;17.0;;;15.0;;
22673;SDS011;11504;43.334;21.918;2023-02-04T18:16:24;17.0;;;15.0;;
22673;SDS011;11504;43.334;21.918;2023-02-04T18:21:18;18.0;;;16.0;;
22673;SDS011;11504;43.334;21.918;2023-02-04T18:26:13;18.0;;;16.0;;
22673;SDS011;11504;43.334;21.918;2023-02-04T18:30:59;19.0;;;18.0;;
22673;SDS011;11504;43.334;21.918;2023-02-04T18:35:41;19.0;;;18.0;;
22673;SDS011;11504;43.334;21.918;2023-02-04T18:40:26;17.0;;;16.0;;
22673;SDS011;11504;43.334;21.918;2023-02-04T18:45:20;17.0;;;16.0;;
22673;SDS011;11504;43.334;21.918;2023-02-04T18:50:25;15.0;;;13.0;;
22673;SDS011;11504;43.334;21.918;2023-02-04T18:55:21;15.0;;;13.0;;
22673;SDS011;11504;43.334;21.918;2023-02-04T19:00:24;14.0;;;12.0;;
22673;SDS011;11504;43.334;21.918;2023-02-04T19:05:27;14.0;;;12.0;;
22673;SDS011;11504;43.334;21.918;2023-02-04T19:10:27;12.0;;;11.0;;
22673;SDS011;11504;43.334;21.918;2023-02-04T19:15:33;12.0;;;11.0;;
22673;SDS011;11504;43.334;21.918;2023-02-04T19:20:21;14.0;;;12.0;;
22673;SDS011;11504;43.334;21.918;2023-02-04T19:25:06;14.0;;;12.0;;
22673;SDS011;11504;43.334;21.918;2023-02-04T19:30:43;17.0;;;14.0;;
22673;SDS011;11504;43.334;21.918;2023-02-04T19:35:27;17.0;;;14.0;;
22673;SDS011;11504;43.334;21.918;2023-02-04T19:40:26;15.0;;;13.0;;
22673;SDS011;11504;43.334;21.918;2023-02-04T19:45:17;15.0;;;13.0;;
22673;SDS011;11504;43.334;21.918;2023-02-04T19:50:20;13.0;;;12.0;;
22673;SDS011;11504;43.334;21.918;2023-02-04T19:55:29;13.0;;;12.0;;
22673;SDS011;11504;43.334;21.918;2023-02-04T20:00:36;13.0;;;12.0;;
22673;SDS011;11504;43.334;21.918;2023-02-04T20:05:34;13.0;;;12.0;;
22673;SDS011;11504;43.334;21.918;2023-02-04T20:10:23;13.0;;;12.0;;
22673;SDS011;11504;43.334;21.918;2023-02-04T20:15:15;13.0;;;12.0;;
22673;SDS011;11504;43.334;21.918;2023-02-04T20:20:14;14.0;;;13.0;;
22673;SDS011;11504;43.334;21.918;2023-02-04T20:25:34;14.0;;;13.0;;
22673;SDS011;11504;43.334;21.918;2023-02-04T20:30:25;14.0;;;14.0;;
22673;SDS011;11504;43.334;21.918;2023-02-04T20:36:22;14.0;;;14.0;;
22673;SDS011;11504;43.334;21.918;2023-02-04T20:41:17;13.0;;;12.0;;
22673;SDS011;11504;43.334;21.918;2023-02-04T20:45:59;13.0;;;12.0;;
22673;SDS011;11504;43.334;21.918;2023-02-04T20:50:43;12.0;;;11.0;;
22673;SDS011;11504;43.334;21.918;2023-02-04T20:55:27;12.0;;;11.0;;
22673;SDS011;11504;43.334;21.918;2023-02-04T21:00:13;12.0;;;10.0;;
22673;SDS011;11504;43.334;21.918;2023-02-04T21:05:20;12.0;;;10.0;;
22673;SDS011;11504;43.334;21.918;2023-02-04T21:09:58;11.0;;;10.0;;
22673;SDS011;11504;43.334;21.918;2023-02-04T21:14:34;11.0;;;10.0;;
22673;SDS011;11504;43.334;21.918;2023-02-04T21:19:13;12.0;;;10.0;;
22673;SDS011;11504;43.334;21.918;2023-02-04T21:23:51;12.0;;;10.0;;
22673;SDS011;11504;43.334;21.918;2023-02-04T21:28:27;12.0;;;10.0;;
22673;SDS011;11504;43.334;21.918;2023-02-04T21:33:05;12.0;;;11.0;;
22673;SDS011;11504;43.334;21.918;2023-02-04T21:37:41;12.0;;;11.0;;
22673;SDS011;11504;43.334;21.918;2023-02-04T21:42:17;12.0;;;11.0;;
22673;SDS011;11504;43.334;21.918;2023-02-04T21:46:54;12.0;;;11.0;;
22673;SDS011;11504;43.334;21.918;2023-02-04T21:51:30;12.0;;;11.0;;
22673;SDS011;11504;43.334;21.918;2023-02-04T21:56:06;12.0;;;11.0;;
22673;SDS011;11504;43.334;21.918;2023-02-04T22:00:44;12.0;;;11.0;;
22673;SDS011;11504;43.334;21.918;2023-02-04T22:05:21;12.0;;;11.0;;
22673;SDS011;11504;43.334;21.918;2023-02-04T22:09:58;12.0;;;11.0;;
22673;SDS011;11504;43.334;21.918;2023-02-04T22:14:36;12.0;;;11.0;;
22673;SDS011;11504;43.334;21.918;2023-02-04T22:19:12;12.0;;;11.0;;
22673;SDS011;11504;43.334;21.918;2023-02-04T22:23:48;12.0;;;11.0;;
22673;SDS011;11504;43.334;21.918;2023-02-04T22:28:25;12.0;;;11.0;;
22673;SDS011;11504;43.334;21.918;2023-02-04T22:42:19;11.0;;;10.0;;
22673;SDS011;11504;43.334;21.918;2023-02-04T22:46:56;11.0;;;10.0;;
22673;SDS011;11504;43.334;21.918;2023-02-04T22:51:34;11.0;;;10.0;;
22673;SDS011;11504;43.334;21.918;2023-02-04T22:56:11;11.0;;;10.0;;
22673;SDS011;11504;43.334;21.918;2023-02-04T23:00:48;11.0;;;10.0;;
22673;SDS011;11504;43.334;21.918;2023-02-04T23:05:25;11.0;;;10.0;;
22673;SDS011;11504;43.334;21.918;2023-02-04T23:10:03;11.0;;;10.0;;
22673;SDS011;11504;43.334;21.918;2023-02-04T23:14:44;11.0;;;10.0;;
22673;SDS011;11504;43.334;21.918;2023-02-04T23:19:22;10.0;;;10.0;;
22673;SDS011;11504;43.334;21.918;2023-02-04T23:23:59;10.0;;;10.0;;
22673;SDS011;11504;43.334;21.918;2023-02-04T23:28:36;10.0;;;10.0;;
22673;SDS011;11504;43.334;21.918;2023-02-04T23:33:12;10.0;;;9.0;;
22673;SDS011;11504;43.334;21.918;2023-02-04T23:37:48;10.0;;;9.0;;
22673;SDS011;11504;43.334;21.918;2023-02-04T23:42:25;10.0;;;9.0;;
22673;SDS011;11504;43.334;21.918;2023-02-04T23:47:04;10.0;;;9.0;;
22673;SDS011;11504;43.334;21.918;2023-02-04T23:51:41;10.0;;;9.0;;
22673;SDS011;11504;43.334;21.918;2023-02-04T23:56:18;10.0;;;9.0;;
